首页
METAR-TAF:

METAR-TAF

机场 :

阿雅克肖, 法国

纬度: 41-55N, 经度: 008-48E, 海拔: 6米

当前天气观测

该预报发布于32分钟前的02:00 UTC
风速5节,风向东北
温度 13°C
湿度 88%
气压 1019 hPa
能见度10公里或以上
1500米以下无云,无积雨云

METAR: LFKJ 250200Z AUTO 04005KT CAVOK 13/11 Q1019 NOSIG

时间: 03:32 (02:32 UTC)

预报

该预报发布于6小时和32分钟前的20:00 UTC
预报有效从24日的 21点(UTC)到 25日的 21点(UTC)
风速5节,风向东北
能见度10公里或以上
短暂存在
从 24日的 21点(UTC)到 24日的 24点(UTC)
多云层高于3300英尺
成为
从 25日的 09点(UTC)到 25日的 11点(UTC)
风速5节,风向西南
散云层高于3000英尺

TAF: LFKJ 242000Z 2421/2521 04005KT 9999 NSC TEMPO 2421/2424 BKN033 BECMG 2509/2511 22005KT SCT030

超过4000个机场的气象观测和天气预报(METAR&TAF报告)。

可查询的气象台以黄色和红色小点在地图上表示。

将鼠标移到小点上方,可查看气象台名称。

然后点击查看天气观测和预报。

如需切换地图:点击带黑十字的绿色按钮放大地图;点击带横线的绿色按钮缩小地图;或者点击绿色箭头查看邻近地区的地图。


METAR-TAF: